Time,TemperatureF,DewpointF,PressureIn,WindDirection,WindDirectionDegrees,WindSpeedMPH,WindSpeedGustMPH,Humidity,HourlyPrecipIn,Conditions,Clouds,dailyrainin,SoftwareType,DateUTC
2013-11-23 00:16:00,52.7,51.0,30.10,NNW,331,3.0,7.0,92,0.00,,,0.00,weatherlink.com 1.10,2013-11-23 05:16:00,
2013-11-23 00:40:00,52.4,51.0,30.10,WNW,285,8.0,9.0,93,0.00,,,0.00,weatherlink.com 1.10,2013-11-23 05:40:00,
2013-11-23 00:55:00,52.3,51.0,30.10,North,10,3.0,10.0,94,0.00,,,0.00,weatherlink.com 1.10,2013-11-23 05:55:00,
2013-11-23 01:26:00,52.3,50.0,30.09,NE,54,3.0,7.0,93,0.00,,,0.00,weatherlink.com 1.10,2013-11-23 06:26:00,
2013-11-23 01:42:00,52.3,50.0,30.09,East,92,1.0,8.0,92,0.00,,,0.00,weatherlink.com 1.10,2013-11-23 06:42:00,
2013-11-23 02:11:00,51.9,50.0,30.09,ESE,110,4.0,7.0,92,0.00,,,0.00,weatherlink.com 1.10,2013-11-23 07:11:00,
2013-11-23 02:40:00,51.2,49.0,30.09,SW,224,2.0,7.0,93,0.00,,,0.00,weatherlink.com 1.10,2013-11-23 07:40:00,
2013-11-23 02:55:00,50.9,49.0,30.09,SW,224,3.0,6.0,92,0.00,,,0.00,weatherlink.com 1.10,2013-11-23 07:55:00,
2013-11-23 03:10:00,50.8,49.0,30.09,West,279,1.0,9.0,92,0.00,,,0.00,weatherlink.com 1.10,2013-11-23 08:10:00,
2013-11-23 03:27:00,50.6,48.0,30.08,ENE,59,2.0,8.0,92,0.00,,,0.00,weatherlink.com 1.10,2013-11-23 08:27:00,
2013-11-23 03:40:00,50.2,48.0,30.07,SW,236,3.0,9.0,93,0.00,,,0.00,weatherlink.com 1.10,2013-11-23 08:40:00,
2013-11-23 03:56:00,49.9,48.0,30.07,SW,233,0.0,6.0,93,0.00,,,0.00,weatherlink.com 1.10,2013-11-23 08:56:00,
2013-11-23 04:11:00,49.7,48.0,30.07,SW,229,2.0,8.0,93,0.00,,,0.00,weatherlink.com 1.10,2013-11-23 09:11:00,
2013-11-23 04:26:00,49.3,48.0,30.06,SW,233,1.0,12.0,94,0.00,,,0.00,weatherlink.com 1.10,2013-11-23 09:26:00,
2013-11-23 04:42:00,49.0,47.0,30.06,West,276,2.0,15.0,94,0.00,,,0.00,weatherlink.com 1.10,2013-11-23 09:42:00,
2013-11-23 05:12:00,48.6,47.0,30.06,SW,227,1.0,8.0,94,0.00,,,0.00,weatherlink.com 1.10,2013-11-23 10:12:00,
2013-11-23 05:26:00,48.5,47.0,30.07,WSW,243,2.0,7.0,94,0.00,,,0.00,weatherlink.com 1.10,2013-11-23 10:26:00,
2013-11-23 06:42:00,47.7,46.0,30.06,West,264,2.0,8.0,93,0.00,,,0.00,weatherlink.com 1.10,2013-11-23 11:42:00,
2013-11-23 06:57:00,47.7,46.0,30.07,SSW,213,2.0,6.0,92,0.00,,,0.00,weatherlink.com 1.10,2013-11-23 11:57:00,
2013-11-23 07:11:00,47.3,45.0,30.07,SE,141,2.0,6.0,92,0.00,,,0.00,weatherlink.com 1.10,2013-11-23 12:11:00,
2013-11-23 07:42:00,47.5,45.0,30.08,NNE,18,1.0,8.0,92,0.00,,,0.00,weatherlink.com 1.10,2013-11-23 12:42:00,
2013-11-23 08:00:00,48.0,45.0,30.09,West,269,1.0,11.0,90,0.01,,,0.01,weatherlink.com 1.10,2013-11-23 13:00:00,
2013-11-23 08:20:00,47.2,45.0,30.09,WNW,289,2.0,12.0,91,0.01,,,0.01,weatherlink.com 1.10,2013-11-23 13:20:00,
2013-11-23 08:28:00,47.0,45.0,30.09,South,187,1.0,12.0,91,0.01,,,0.01,weatherlink.com 1.10,2013-11-23 13:28:00,
2013-11-23 08:57:00,46.5,44.0,30.09,West,274,4.0,10.0,92,0.00,,,0.01,weatherlink.com 1.10,2013-11-23 13:57:00,
2013-11-23 09:28:00,45.5,43.0,30.09,NW,305,3.0,12.0,92,0.00,,,0.01,weatherlink.com 1.10,2013-11-23 14:28:00,
2013-11-23 09:42:00,45.3,43.0,30.09,WSW,251,7.0,10.0,92,0.00,,,0.01,weatherlink.com 1.10,2013-11-23 14:42:00,
2013-11-23 09:59:00,45.4,43.0,30.09,NW,306,5.0,11.0,91,0.00,,,0.01,weatherlink.com 1.10,2013-11-23 14:59:00,
2013-11-23 10:12:00,45.1,42.0,30.08,SSW,207,5.0,9.0,90,0.00,,,0.01,weatherlink.com 1.10,2013-11-23 15:12:00,
2013-11-23 10:29:00,45.0,42.0,30.07,West,266,5.0,15.0,89,0.00,,,0.01,weatherlink.com 1.10,2013-11-23 15:29:00,
2013-11-23 10:43:00,45.1,42.0,30.08,NW,309,3.0,10.0,88,0.00,,,0.01,weatherlink.com 1.10,2013-11-23 15:43:00,
2013-11-23 11:28:00,45.3,41.0,30.08,WSW,245,5.0,17.0,85,0.00,,,0.01,weatherlink.com 1.10,2013-11-23 16:28:00,
2013-11-23 11:46:00,45.7,41.0,30.07,WSW,237,6.0,17.0,84,0.00,,,0.01,weatherlink.com 1.10,2013-11-23 16:46:00,
2013-11-23 12:10:00,46.6,41.0,30.07,WNW,285,7.0,8.0,81,0.00,,,0.01,weatherlink.com 1.10,2013-11-23 17:10:00,
2013-11-23 13:59:00,44.5,38.0,30.05,SSW,198,5.0,14.0,77,0.00,,,0.01,weatherlink.com 1.10,2013-11-23 18:59:00,
2013-11-23 14:13:00,44.6,38.0,30.05,WSW,247,6.0,13.0,77,0.00,,,0.01,weatherlink.com 1.10,2013-11-23 19:13:00,
2013-11-23 14:32:00,44.4,37.0,30.05,SW,234,2.0,14.0,74,0.00,,,0.01,weatherlink.com 1.10,2013-11-23 19:32:00,
2013-11-23 14:58:00,44.0,36.0,30.05,WNW,282,1.0,15.0,73,0.00,,,0.01,weatherlink.com 1.10,2013-11-23 19:58:00,
2013-11-23 15:29:00,42.0,35.0,30.05,SSW,194,1.0,14.0,75,0.00,,,0.01,weatherlink.com 1.10,2013-11-23 20:29:00,
2013-11-23 15:44:00,42.2,33.0,30.05,SW,234,4.0,9.0,71,0.00,,,0.01,weatherlink.com 1.10,2013-11-23 20:44:00,
2013-11-23 15:59:00,42.3,32.0,30.05,WNW,295,3.0,5.0,67,0.00,,,0.01,weatherlink.com 1.10,2013-11-23 20:59:00,
2013-11-23 16:16:00,40.9,30.0,30.04,ESE,120,4.0,10.0,66,0.00,,,0.01,weatherlink.com 1.10,2013-11-23 21:16:00,
2013-11-23 16:33:00,40.0,28.0,30.05,WNW,299,2.0,10.0,63,0.00,,,0.01,weatherlink.com 1.10,2013-11-23 21:33:00,
2013-11-23 16:44:00,39.2,29.0,30.04,WNW,288,2.0,14.0,67,0.00,,,0.01,weatherlink.com 1.10,2013-11-23 21:44:00,
2013-11-23 17:00:00,38.8,29.0,30.05,North,356,2.0,9.0,68,0.00,,,0.01,weatherlink.com 1.10,2013-11-23 22:00:00,
2013-11-23 17:44:00,37.0,29.0,30.04,WNW,294,3.0,9.0,72,0.00,,,0.01,weatherlink.com 1.10,2013-11-23 22:44:00,
2013-11-23 18:00:00,36.4,29.0,30.04,South,178,3.0,19.0,73,0.00,,,0.01,weatherlink.com 1.10,2013-11-23 23:00:00,
2013-11-23 18:15:00,36.0,28.0,30.04,WSW,243,5.0,12.0,72,0.00,,,0.01,weatherlink.com 1.10,2013-11-23 23:15:00,
2013-11-23 18:30:00,35.6,28.0,30.04,South,170,9.0,16.0,73,0.00,,,0.01,weatherlink.com 1.10,2013-11-23 23:30:00,
2013-11-23 19:30:00,34.1,25.0,30.04,WNW,303,6.0,16.0,70,0.00,,,0.01,weatherlink.com 1.10,2013-11-24 00:30:00,
2013-11-23 20:01:00,33.5,21.0,30.05,WSW,248,2.0,14.0,61,0.00,,,0.01,weatherlink.com 1.10,2013-11-24 01:01:00,
2013-11-23 20:16:00,33.1,20.0,30.05,West,277,4.0,-999.0,58,-99.99,,,0.01,weatherlink.com 1.10,2013-11-24 01:16:00,
2013-11-23 20:45:00,32.5,19.0,30.05,West,273,4.0,18.0,58,0.00,,,0.01,weatherlink.com 1.10,2013-11-24 01:45:00,
2013-11-23 21:00:00,31.9,20.0,30.06,SW,236,4.0,11.0,62,0.00,,,0.01,weatherlink.com 1.10,2013-11-24 02:00:00,
2013-11-23 21:16:00,31.5,21.0,30.05,West,278,2.0,16.0,66,0.00,,,0.01,weatherlink.com 1.10,2013-11-24 02:16:00,
2013-11-23 21:30:00,30.8,21.0,30.06,West,267,5.0,13.0,67,0.00,,,0.01,weatherlink.com 1.10,2013-11-24 02:30:00,
2013-11-23 21:46:00,30.3,19.0,30.07,NNW,327,5.0,10.0,64,0.00,,,0.01,weatherlink.com 1.10,2013-11-24 02:46:00,
2013-11-23 22:08:00,29.5,18.0,30.07,West,271,3.0,9.0,62,0.00,,,0.01,weatherlink.com 1.10,2013-11-24 03:08:00,
2013-11-23 22:16:00,29.2,18.0,30.07,WSW,244,4.0,9.0,63,0.00,,,0.01,weatherlink.com 1.10,2013-11-24 03:16:00,
2013-11-23 22:31:00,28.7,18.0,30.08,WNW,295,6.0,13.0,64,0.00,,,0.01,weatherlink.com 1.10,2013-11-24 03:31:00,
2013-11-23 22:46:00,28.5,18.0,30.08,WNW,300,2.0,10.0,64,0.00,,,0.01,weatherlink.com 1.10,2013-11-24 03:46:00,
2013-11-23 23:00:00,28.3,17.0,30.08,WNW,290,4.0,9.0,64,0.00,,,0.01,weatherlink.com 1.10,2013-11-24 04:00:00,
2013-11-23 23:16:00,28.0,17.0,30.08,West,274,4.0,15.0,63,0.00,,,0.01,weatherlink.com 1.10,2013-11-24 04:16:00,
2013-11-23 23:32:00,27.5,17.0,30.08,WNW,282,2.0,8.0,65,0.00,,,0.01,weatherlink.com 1.10,2013-11-24 04:32:00,
2013-11-23 23:46:00,27.2,17.0,30.09,WNW,296,0.0,11.0,65,0.00,,,0.01,weatherlink.com 1.10,2013-11-24 04:46:00,